Soaring Guidance
Issued by NWS Reno, NV

Home | Current Version | Previous Version | Text Only | Print | Product List | Glossary On
Versions: 1 2 3 4 5 6 7 8 9 10 11 12
421
UXUS97 KREV 231346
SRGREV

SOARING FORECAST
NATIONAL WEATHER SERVICE - RENO NV
700 AM PDT TUE AUG 23 2016

THIS SOARING FORECAST IS FOR THE EASTERN SIERRA AND WESTERN NEVADA
WITH SPECIFIC INDICES FOR THE GREATER RENO AREA.

THIS FORECAST IS PREPARED DAILY BY 700 AM AND IS NOT UPDATED.

FOR CURRENT FLIGHT CONDITIONS...FORECASTS...AND ADVISORIES...ACCESS
YOUR LOCAL BRIEFING OUTLET OR FLIGHT SERVICE STATION.

*******************************************************************
FORECASTED LOCAL INDICES FOR RENO:        TODAY     YESTERDAY
FORECASTED MAX TEMP AT RENO (DEG F).....     92          89
FORECASTED TRIGGER TEMPERATURE (DEG F)..     79          81
   EXCEEDED YESTERDAY BY 1155 AM PDT
FORECASTED MAXIMUM ALTITUDE (FT MSL)....  17600       18000
FORECASTED SOARING INDEX (FPM)..........   1218        1203
FORECASTED K-INDEX.........VALID 18Z....     20          21
FORECASTED K-INDEX.........VALID 00Z....     28          24
FORECASTED LIFTED INDEX....VALID 18Z....      4           1
FORECASTED LIFTED INDEX....VALID 00Z....      0           0

AFTERNOON WINDS ALOFT FORECAST
MSL (FT) WIND/TEMP
9000  2822/+15
10000 2822/+12
12000 2921/+07
14000 2920/+01
16000 2919/-04
18000 2917/-10
24000 3022/-23
30000 3023/-39
34000 3137/-47
39000 3157/-54

SLIDE MOUNTAIN DATA:
     DATE       TIME     TEMP  DEWPT   RH         WIND (MPH)
                        (F)   (F)           | DIR  SPEED GUST
2016-08-23    05:20      53    33     33    | 279   17   26
2016-08-23    05:00      53    33     33    | 279   17   24
2016-08-23    04:50      53    33     34    | 278   17   24
2016-08-23    04:30      53    34     35    | 279   17   25

RENO TAF FORECAST:
KRNO 231120Z 2312/2412 VRB03KT P6SM FEW100 SCT200
     FM231900 29009KT P6SM FEW120 SCT200
     FM232200 29014G25KT P6SM SCT120 SCT200
     FM240400 32007KT P6SM SKC

CARSON CITY TAF FORECAST:
KCXP 231120Z 2312/2412 VRB03KT P6SM FEW100 SCT200
     FM231900 22007KT P6SM FEW120 SCT200
     FM232100 26012G24KT P6SM SCT120 SCT200
     FM240200 30007KT P6SM SKC

OUTLOOK FOR THE RENO-CARSON CITY-MINDEN AREA:
.WEDNESDAY...SUNNY. HIGHS 88 TO 93. LIGHT WINDS.

SUNRISE AND SUNSET
AUGUST 23 2016........SUNRISE   620 AM PDT   SUNSET   743 PM PDT
AUGUST 24 2016........SUNRISE   621 AM PDT   SUNSET   741 PM PDT



USA.gov is the U.S. government's official web portal to all federal, state and local government web resources and services.